sensor_id;sensor_type;location;lat;lon;timestamp;pressure;altitude;pressure_sealevel;temperature;humidity
74268;BME280;62638;51.362;12.472;2023-04-01T00:01:03;98278.16;;;8.95;100.00
74268;BME280;62638;51.362;12.472;2023-04-01T00:03:30;98266.38;;;8.89;100.00
74268;BME280;62638;51.362;12.472;2023-04-01T00:05:56;98268.19;;;8.89;100.00
74268;BME280;62638;51.362;12.472;2023-04-01T00:08:23;98274.28;;;8.83;100.00
74268;BME280;62638;51.362;12.472;2023-04-01T00:10:49;98270.31;;;8.79;100.00
74268;BME280;62638;51.362;12.472;2023-04-01T00:13:15;98272.16;;;8.78;100.00
74268;BME280;62638;51.362;12.472;2023-04-01T00:15:40;98268.19;;;8.74;100.00
74268;BME280;62638;51.362;12.472;2023-04-01T00:18:06;98265.81;;;8.79;100.00
74268;BME280;62638;51.362;12.472;2023-04-01T00:20:31;98262.84;;;8.74;100.00
74268;BME280;62638;51.362;12.472;2023-04-01T00:22:57;98275.22;;;8.90;100.00
74268;BME280;62638;51.362;12.472;2023-04-01T00:25:23;98264.19;;;8.93;100.00
74268;BME280;62638;51.362;12.472;2023-04-01T00:27:48;98271.06;;;8.87;100.00
74268;BME280;62638;51.362;12.472;2023-04-01T00:30:14;98268.78;;;8.84;100.00
74268;BME280;62638;51.362;12.472;2023-04-01T00:32:40;98277.16;;;8.96;100.00
74268;BME280;62638;51.362;12.472;2023-04-01T00:35:05;98269.63;;;8.99;100.00
74268;BME280;62638;51.362;12.472;2023-04-01T00:37:34;98260.13;;;8.97;100.00
74268;BME280;62638;51.362;12.472;2023-04-01T00:40:00;98270.63;;;8.98;100.00
74268;BME280;62638;51.362;12.472;2023-04-01T00:42:25;98273.28;;;8.98;100.00
74268;BME280;62638;51.362;12.472;2023-04-01T00:44:52;98262.06;;;8.88;100.00
74268;BME280;62638;51.362;12.472;2023-04-01T00:47:18;98267.03;;;8.91;100.00
74268;BME280;62638;51.362;12.472;2023-04-01T00:49:48;98265.53;;;8.89;100.00
74268;BME280;62638;51.362;12.472;2023-04-01T00:52:17;98259.19;;;8.90;100.00
74268;BME280;62638;51.362;12.472;2023-04-01T00:54:47;98268.03;;;8.90;100.00
74268;BME280;62638;51.362;12.472;2023-04-01T00:57:21;98252.94;;;8.83;100.00
74268;BME280;62638;51.362;12.472;2023-04-01T00:59:52;98267.56;;;8.87;100.00
74268;BME280;62638;51.362;12.472;2023-04-01T01:02:19;98265.38;;;8.90;100.00
74268;BME280;62638;51.362;12.472;2023-04-01T01:04:45;98257.53;;;8.89;100.00
74268;BME280;62638;51.362;12.472;2023-04-01T01:07:35;98254.84;;;8.89;100.00
74268;BME280;62638;51.362;12.472;2023-04-01T01:10:13;98258.19;;;8.91;100.00
74268;BME280;62638;51.362;12.472;2023-04-01T01:15:37;98262.97;;;8.95;100.00
74268;BME280;62638;51.362;12.472;2023-04-01T01:18:27;98270.91;;;9.03;100.00
74268;BME280;62638;51.362;12.472;2023-04-01T01:21:11;98259.59;;;9.01;100.00
74268;BME280;62638;51.362;12.472;2023-04-01T01:24:28;98262.16;;;8.95;100.00
74268;BME280;62638;51.362;12.472;2023-04-01T01:27:11;98260.88;;;9.05;100.00
74268;BME280;62638;51.362;12.472;2023-04-01T01:32:38;98265.38;;;9.05;100.00
74268;BME280;62638;51.362;12.472;2023-04-01T01:35:27;98265.00;;;9.08;100.00
74268;BME280;62638;51.362;12.472;2023-04-01T01:37:56;98257.09;;;9.00;100.00
74268;BME280;62638;51.362;12.472;2023-04-01T01:40:26;98252.13;;;8.97;100.00
74268;BME280;62638;51.362;12.472;2023-04-01T01:42:56;98258.19;;;8.91;100.00
74268;BME280;62638;51.362;12.472;2023-04-01T01:45:25;98256.97;;;8.93;100.00
74268;BME280;62638;51.362;12.472;2023-04-01T01:47:51;98249.06;;;8.85;100.00
74268;BME280;62638;51.362;12.472;2023-04-01T01:50:18;98248.72;;;8.88;100.00
74268;BME280;62638;51.362;12.472;2023-04-01T01:52:45;98254.50;;;8.92;100.00
74268;BME280;62638;51.362;12.472;2023-04-01T01:55:48;98255.97;;;8.94;100.00
74268;BME280;62638;51.362;12.472;2023-04-01T01:58:19;98254.44;;;9.00;100.00
74268;BME280;62638;51.362;12.472;2023-04-01T02:00:50;98260.41;;;9.02;100.00
74268;BME280;62638;51.362;12.472;2023-04-01T02:03:20;98248.41;;;8.98;100.00
74268;BME280;62638;51.362;12.472;2023-04-01T02:05:47;98256.72;;;9.03;100.00
74268;BME280;62638;51.362;12.472;2023-04-01T02:08:16;98256.38;;;9.06;100.00
74268;BME280;62638;51.362;12.472;2023-04-01T02:10:51;98269.16;;;9.10;100.00
74268;BME280;62638;51.362;12.472;2023-04-01T02:13:51;98260.06;;;9.05;100.00
74268;BME280;62638;51.362;12.472;2023-04-01T02:16:29;98251.59;;;9.01;100.00
74268;BME280;62638;51.362;12.472;2023-04-01T02:18:57;98267.06;;;9.06;100.00
74268;BME280;62638;51.362;12.472;2023-04-01T02:21:26;98261.88;;;9.04;100.00
74268;BME280;62638;51.362;12.472;2023-04-01T02:23:53;98266.84;;;9.07;100.00
74268;BME280;62638;51.362;12.472;2023-04-01T02:26:22;98269.53;;;9.07;100.00
74268;BME280;62638;51.362;12.472;2023-04-01T02:28:50;98258.84;;;9.07;100.00
74268;BME280;62638;51.362;12.472;2023-04-01T02:31:16;98265.13;;;9.15;100.00
74268;BME280;62638;51.362;12.472;2023-04-01T02:33:42;98266.13;;;9.14;100.00
74268;BME280;62638;51.362;12.472;2023-04-01T02:36:12;98266.75;;;9.16;100.00
74268;BME280;62638;51.362;12.472;2023-04-01T02:38:38;98270.25;;;9.16;100.00
74268;BME280;62638;51.362;12.472;2023-04-01T02:41:03;98278.94;;;9.18;100.00
74268;BME280;62638;51.362;12.472;2023-04-01T02:43:30;98270.94;;;9.18;100.00
74268;BME280;62638;51.362;12.472;2023-04-01T02:45:55;98282.69;;;9.24;100.00
74268;BME280;62638;51.362;12.472;2023-04-01T02:48:21;98284.56;;;9.23;100.00
74268;BME280;62638;51.362;12.472;2023-04-01T02:50:46;98282.91;;;9.22;100.00
74268;BME280;62638;51.362;12.472;2023-04-01T02:53:11;98281.06;;;9.23;100.00
74268;BME280;62638;51.362;12.472;2023-04-01T02:55:37;98270.34;;;9.08;100.00
74268;BME280;62638;51.362;12.472;2023-04-01T02:58:02;98282.69;;;9.24;100.00
74268;BME280;62638;51.362;12.472;2023-04-01T03:00:28;98283.53;;;9.24;100.00
74268;BME280;62638;51.362;12.472;2023-04-01T03:02:53;98290.53;;;9.25;100.00
74268;BME280;62638;51.362;12.472;2023-04-01T03:05:19;98289.53;;;9.26;100.00
74268;BME280;62638;51.362;12.472;2023-04-01T03:07:44;98293.50;;;9.30;100.00
74268;BME280;62638;51.362;12.472;2023-04-01T03:10:10;98299.38;;;9.26;100.00
74268;BME280;62638;51.362;12.472;2023-04-01T03:12:35;98295.03;;;9.25;100.00
74268;BME280;62638;51.362;12.472;2023-04-01T03:15:01;98299.00;;;9.29;100.00
74268;BME280;62638;51.362;12.472;2023-04-01T03:17:26;98298.00;;;9.30;100.00
74268;BME280;62638;51.362;12.472;2023-04-01T03:19:51;98291.91;;;9.21;100.00
74268;BME280;62638;51.362;12.472;2023-04-01T03:22:16;98287.78;;;9.19;100.00
74268;BME280;62638;51.362;12.472;2023-04-01T03:24:44;98285.16;;;9.10;100.00
74268;BME280;62638;51.362;12.472;2023-04-01T03:27:09;98274.88;;;9.07;100.00
74268;BME280;62638;51.362;12.472;2023-04-01T03:29:34;98288.88;;;9.09;100.00
74268;BME280;62638;51.362;12.472;2023-04-01T03:31:59;98294.22;;;9.09;100.00
74268;BME280;62638;51.362;12.472;2023-04-01T03:34:25;98289.44;;;9.05;100.00
74268;BME280;62638;51.362;12.472;2023-04-01T03:36:51;98291.09;;;9.06;100.00
74268;BME280;62638;51.362;12.472;2023-04-01T03:39:16;98295.22;;;9.08;100.00
74268;BME280;62638;51.362;12.472;2023-04-01T03:41:44;98295.41;;;9.07;100.00
74268;BME280;62638;51.362;12.472;2023-04-01T03:44:09;98291.88;;;9.06;100.00
74268;BME280;62638;51.362;12.472;2023-04-01T03:46:35;98293.81;;;8.98;100.00
74268;BME280;62638;51.362;12.472;2023-04-01T03:49:00;98299.81;;;9.00;100.00
74268;BME280;62638;51.362;12.472;2023-04-01T03:51:25;98293.56;;;8.93;100.00
74268;BME280;62638;51.362;12.472;2023-04-01T03:53:51;98298.06;;;8.92;100.00
74268;BME280;62638;51.362;12.472;2023-04-01T03:56:16;98302.75;;;8.90;100.00
74268;BME280;62638;51.362;12.472;2023-04-01T03:58:41;98303.41;;;8.92;100.00
74268;BME280;62638;51.362;12.472;2023-04-01T04:01:18;98296.75;;;8.88;100.00
74268;BME280;62638;51.362;12.472;2023-04-01T04:03:45;98298.94;;;8.85;100.00
74268;BME280;62638;51.362;12.472;2023-04-01T04:06:14;98296.47;;;8.83;100.00
74268;BME280;62638;51.362;12.472;2023-04-01T04:08:40;98298.84;;;8.78;100.00
74268;BME280;62638;51.362;12.472;2023-04-01T04:11:05;98289.25;;;8.69;100.00
74268;BME280;62638;51.362;12.472;2023-04-01T04:13:31;98306.84;;;8.78;100.00
74268;BME280;62638;51.362;12.472;2023-04-01T04:15:56;98297.25;;;8.69;100.00
74268;BME280;62638;51.362;12.472;2023-04-01T04:18:21;98310.59;;;8.69;100.00
74268;BME280;62638;51.362;12.472;2023-04-01T04:20:47;98300.81;;;8.61;100.00
74268;BME280;62638;51.362;12.472;2023-04-01T04:23:15;98303.66;;;8.60;100.00
74268;BME280;62638;51.362;12.472;2023-04-01T04:25:40;98312.50;;;8.60;100.00
74268;BME280;62638;51.362;12.472;2023-04-01T04:28:05;98317.38;;;8.57;100.00
74268;BME280;62638;51.362;12.472;2023-04-01T04:30:31;98312.88;;;8.57;100.00
74268;BME280;62638;51.362;12.472;2023-04-01T04:32:57;98311.19;;;8.56;100.00
74268;BME280;62638;51.362;12.472;2023-04-01T04:35:22;98329.34;;;8.61;100.00
74268;BME280;62638;51.362;12.472;2023-04-01T04:37:47;98330.34;;;8.60;100.00
74268;BME280;62638;51.362;12.472;2023-04-01T04:40:13;98334.97;;;8.66;100.00
74268;BME280;62638;51.362;12.472;2023-04-01T04:42:38;98321.34;;;8.61;100.00
74268;BME280;62638;51.362;12.472;2023-04-01T04:45:03;98330.34;;;8.60;100.00
74268;BME280;62638;51.362;12.472;2023-04-01T04:47:29;98334.31;;;8.64;100.00
74268;BME280;62638;51.362;12.472;2023-04-01T04:49:54;98323.84;;;8.62;100.00
74268;BME280;62638;51.362;12.472;2023-04-01T04:52:19;98336.44;;;8.69;100.00
74268;BME280;62638;51.362;12.472;2023-04-01T04:54:45;98332.00;;;8.61;100.00
74268;BME280;62638;51.362;12.472;2023-04-01T04:57:10;98337.66;;;8.66;100.00
74268;BME280;62638;51.362;12.472;2023-04-01T04:59:35;98336.34;;;8.62;100.00
74268;BME280;62638;51.362;12.472;2023-04-01T05:02:01;98322.53;;;8.58;100.00
74268;BME280;62638;51.362;12.472;2023-04-01T05:04:26;98338.75;;;8.72;100.00
74268;BME280;62638;51.362;12.472;2023-04-01T05:06:52;98324.84;;;8.61;100.00
74268;BME280;62638;51.362;12.472;2023-04-01T05:09:17;98340.63;;;8.71;100.00
74268;BME280;62638;51.362;12.472;2023-04-01T05:11:42;98344.59;;;8.75;100.00
74268;BME280;62638;51.362;12.472;2023-04-01T05:14:15;98341.25;;;8.73;100.00
74268;BME280;62638;51.362;12.472;2023-04-01T05:16:40;98342.91;;;8.74;100.00
74268;BME280;62638;51.362;12.472;2023-04-01T05:19:06;98340.72;;;8.78;100.00
74268;BME280;62638;51.362;12.472;2023-04-01T05:21:31;98350.19;;;8.80;100.00
74268;BME280;62638;51.362;12.472;2023-04-01T05:23:56;98354.38;;;8.83;100.00
74268;BME280;62638;51.362;12.472;2023-04-01T05:26:22;98342.69;;;8.84;100.00
74268;BME280;62638;51.362;12.472;2023-04-01T05:28:47;98356.78;;;8.92;100.00
74268;BME280;62638;51.362;12.472;2023-04-01T05:31:12;98347.59;;;8.95;100.00
74268;BME280;62638;51.362;12.472;2023-04-01T05:33:37;98359.72;;;8.97;100.00
74268;BME280;62638;51.362;12.472;2023-04-01T05:36:11;98350.25;;;8.95;100.00
74268;BME280;62638;51.362;12.472;2023-04-01T05:38:37;98349.00;;;9.05;100.00
74268;BME280;62638;51.362;12.472;2023-04-01T05:41:03;98361.44;;;9.13;100.00
74268;BME280;62638;51.362;12.472;2023-04-01T05:43:28;98362.81;;;9.24;100.00
74268;BME280;62638;51.362;12.472;2023-04-01T05:45:55;98364.97;;;9.28;100.00
74268;BME280;62638;51.362;12.472;2023-04-01T05:48:20;98361.09;;;9.31;100.00
74268;BME280;62638;51.362;12.472;2023-04-01T05:50:46;98365.91;;;9.35;100.00
74268;BME280;62638;51.362;12.472;2023-04-01T05:53:11;98369.88;;;9.39;100.00
74268;BME280;62638;51.362;12.472;2023-04-01T05:55:36;98360.44;;;9.29;100.00
74268;BME280;62638;51.362;12.472;2023-04-01T05:58:02;98372.81;;;9.44;100.00
74268;BME280;62638;51.362;12.472;2023-04-01T06:00:27;98368.91;;;9.32;100.00
74268;BME280;62638;51.362;12.472;2023-04-01T06:02:53;98378.44;;;9.35;100.00
74268;BME280;62638;51.362;12.472;2023-04-01T06:05:24;98378.22;;;9.36;100.00
74268;BME280;62638;51.362;12.472;2023-04-01T06:07:55;98384.44;;;9.51;100.00
74268;BME280;62638;51.362;12.472;2023-04-01T06:10:33;98387.38;;;9.42;100.00
74268;BME280;62638;51.362;12.472;2023-04-01T06:13:06;98372.88;;;9.36;100.00
74268;BME280;62638;51.362;12.472;2023-04-01T06:16:15;98386.34;;;9.43;100.00
74268;BME280;62638;51.362;12.472;2023-04-01T06:26:37;98421.47;;;9.54;100.00
74268;BME280;62638;51.362;12.472;2023-04-01T06:47:22;98423.16;;;9.85;97.80
74268;BME280;62638;51.362;12.472;2023-04-01T06:50:06;98430.00;;;9.87;98.03
74268;BME280;62638;51.362;12.472;2023-04-01T06:53:00;98429.16;;;10.01;99.40
74268;BME280;62638;51.362;12.472;2023-04-01T06:55:47;98421.78;;;10.03;98.00
74268;BME280;62638;51.362;12.472;2023-04-01T06:58:42;98404.25;;;10.01;96.98
74268;BME280;62638;51.362;12.472;2023-04-01T07:01:18;98425.81;;;10.14;96.47
74268;BME280;62638;51.362;12.472;2023-04-01T07:03:55;98425.69;;;10.16;96.87
74268;BME280;62638;51.362;12.472;2023-04-01T07:06:35;98435.66;;;10.22;97.62
74268;BME280;62638;51.362;12.472;2023-04-01T07:09:06;98432.78;;;10.23;97.69
74268;BME280;62638;51.362;12.472;2023-04-01T07:11:35;98426.13;;;10.34;97.45
74268;BME280;62638;51.362;12.472;2023-04-01T07:14:05;98432.03;;;10.44;97.09
74268;BME280;62638;51.362;12.472;2023-04-01T07:21:48;98438.59;;;10.63;95.83
74268;BME280;62638;51.362;12.472;2023-04-01T07:24:49;98437.41;;;10.65;94.46
74268;BME280;62638;51.362;12.472;2023-04-01T07:27:15;98436.38;;;10.66;93.94
74268;BME280;62638;51.362;12.472;2023-04-01T07:29:40;98435.59;;;10.87;94.31
74268;BME280;62638;51.362;12.472;2023-04-01T07:32:55;98440.75;;;10.88;94.08
74268;BME280;62638;51.362;12.472;2023-04-01T07:35:13;98445.47;;;10.86;92.92
74268;BME280;62638;51.362;12.472;2023-04-01T07:38:08;98450.13;;;10.99;93.96
74268;BME280;62638;51.362;12.472;2023-04-01T07:41:10;98447.59;;;10.91;91.96
74268;BME280;62638;51.362;12.472;2023-04-01T07:47:05;98454.06;;;10.82;91.59
74268;BME280;62638;51.362;12.472;2023-04-01T07:49:57;98453.97;;;10.75;91.49
74268;BME280;62638;51.362;12.472;2023-04-01T07:52:51;98453.97;;;10.75;92.13
74268;BME280;62638;51.362;12.472;2023-04-01T08:01:02;98474.44;;;10.98;88.53
74268;BME280;62638;51.362;12.472;2023-04-01T08:06:19;98466.53;;;11.32;88.65
74268;BME280;62638;51.362;12.472;2023-04-01T08:09:10;98467.50;;;11.52;88.71
74268;BME280;62638;51.362;12.472;2023-04-01T08:14:36;98479.72;;;11.55;87.14
74268;BME280;62638;51.362;12.472;2023-04-01T08:17:15;98474.78;;;11.58;86.12
74268;BME280;62638;51.362;12.472;2023-04-01T08:22:25;98480.63;;;11.41;86.68
74268;BME280;62638;51.362;12.472;2023-04-01T08:24:54;98485.94;;;11.34;85.72
74268;BME280;62638;51.362;12.472;2023-04-01T08:27:25;98485.41;;;11.45;86.87
74268;BME280;62638;51.362;12.472;2023-04-01T08:29:58;98483.63;;;11.31;84.31
74268;BME280;62638;51.362;12.472;2023-04-01T08:32:39;98497.41;;;11.28;83.46
74268;BME280;62638;51.362;12.472;2023-04-01T08:37:54;98492.88;;;11.28;82.79
74268;BME280;62638;51.362;12.472;2023-04-01T08:40:46;98474.56;;;11.11;82.75
74268;BME280;62638;51.362;12.472;2023-04-01T08:49:22;98500.34;;;11.75;81.59
74268;BME280;62638;51.362;12.472;2023-04-01T08:52:18;98499.19;;;11.63;81.90
74268;BME280;62638;51.362;12.472;2023-04-01T09:12:28;98492.69;;;11.72;82.17
74268;BME280;62638;51.362;12.472;2023-04-01T09:18:13;98496.78;;;12.24;82.97
74268;BME280;62638;51.362;12.472;2023-04-01T09:26:11;98492.75;;;12.13;81.42
74268;BME280;62638;51.362;12.472;2023-04-01T09:29:05;98502.00;;;12.04;81.10
74268;BME280;62638;51.362;12.472;2023-04-01T09:32:11;98510.00;;;11.98;79.66
74268;BME280;62638;51.362;12.472;2023-04-01T09:34:43;98498.34;;;12.12;80.22
74268;BME280;62638;51.362;12.472;2023-04-01T09:37:19;98500.03;;;11.92;81.69
74268;BME280;62638;51.362;12.472;2023-04-01T09:39:57;98507.25;;;12.19;80.94
74268;BME280;62638;51.362;12.472;2023-04-01T09:45:40;98507.16;;;12.34;80.49
74268;BME280;62638;51.362;12.472;2023-04-01T09:48:43;98509.47;;;12.43;81.23
74268;BME280;62638;51.362;12.472;2023-04-01T10:06:33;98510.56;;;12.21;84.20
74268;BME280;62638;51.362;12.472;2023-04-01T10:12:42;98507.28;;;12.25;82.81
74268;BME280;62638;51.362;12.472;2023-04-01T10:15:45;98511.38;;;12.15;81.14
74268;BME280;62638;51.362;12.472;2023-04-01T10:18:35;98511.84;;;11.97;81.58
74268;BME280;62638;51.362;12.472;2023-04-01T10:30:06;98521.38;;;11.72;83.69
74268;BME280;62638;51.362;12.472;2023-04-01T10:35:58;98513.00;;;11.60;85.82
74268;BME280;62638;51.362;12.472;2023-04-01T10:41:22;98517.66;;;11.73;84.97
74268;BME280;62638;51.362;12.472;2023-04-01T10:49:49;98519.81;;;11.84;83.59
74268;BME280;62638;51.362;12.472;2023-04-01T11:01:31;98513.13;;;12.29;81.50
74268;BME280;62638;51.362;12.472;2023-04-01T11:13:01;98517.59;;;12.22;83.85
74268;BME280;62638;51.362;12.472;2023-04-01T11:16:10;98517.44;;;12.30;84.27
74268;BME280;62638;51.362;12.472;2023-04-01T11:24:21;98525.25;;;12.59;75.45
74268;BME280;62638;51.362;12.472;2023-04-01T11:32:51;98519.69;;;12.26;77.72
74268;BME280;62638;51.362;12.472;2023-04-01T11:38:31;98525.25;;;11.91;84.76
74268;BME280;62638;51.362;12.472;2023-04-01T11:41:22;98528.19;;;11.74;84.86
74268;BME280;62638;51.362;12.472;2023-04-01T11:44:16;98527.16;;;11.54;85.65
74268;BME280;62638;51.362;12.472;2023-04-01T11:47:19;98537.44;;;11.51;86.45
74268;BME280;62638;51.362;12.472;2023-04-01T11:50:23;98539.69;;;11.47;87.45
74268;BME280;62638;51.362;12.472;2023-04-01T11:55:58;98540.16;;;11.15;90.13
74268;BME280;62638;51.362;12.472;2023-04-01T12:01:36;98529.69;;;11.20;95.33
74268;BME280;62638;51.362;12.472;2023-04-01T12:10:39;98543.38;;;11.46;89.29
74268;BME280;62638;51.362;12.472;2023-04-01T12:13:29;98560.34;;;11.53;88.84
74268;BME280;62638;51.362;12.472;2023-04-01T12:18:53;98564.03;;;11.31;91.57
74268;BME280;62638;51.362;12.472;2023-04-01T12:21:29;98557.34;;;11.06;94.54
74268;BME280;62638;51.362;12.472;2023-04-01T12:27:13;98564.13;;;11.23;95.70
74268;BME280;62638;51.362;12.472;2023-04-01T12:38:04;98571.88;;;11.32;95.75
74268;BME280;62638;51.362;12.472;2023-04-01T12:46:14;98576.25;;;11.19;96.75
74268;BME280;62638;51.362;12.472;2023-04-01T13:00:05;98580.38;;;11.36;95.76
74268;BME280;62638;51.362;12.472;2023-04-01T13:05:49;98564.56;;;11.62;93.93
74268;BME280;62638;51.362;12.472;2023-04-01T13:09:00;98595.34;;;11.88;91.22
74268;BME280;62638;51.362;12.472;2023-04-01T13:11:45;98594.03;;;11.77;88.60
74268;BME280;62638;51.362;12.472;2023-04-01T13:17:23;98591.22;;;11.85;87.42
74268;BME280;62638;51.362;12.472;2023-04-01T13:20:14;98590.56;;;11.83;86.41
74268;BME280;62638;51.362;12.472;2023-04-01T13:23:16;98587.19;;;11.74;86.85
74268;BME280;62638;51.362;12.472;2023-04-01T13:26:01;98605.19;;;11.80;85.75
74268;BME280;62638;51.362;12.472;2023-04-01T13:28:34;98601.28;;;11.83;85.24
74268;BME280;62638;51.362;12.472;2023-04-01T13:31:26;98603.13;;;11.82;86.24
74268;BME280;62638;51.362;12.472;2023-04-01T13:34:45;98598.75;;;11.75;85.99
74268;BME280;62638;51.362;12.472;2023-04-01T13:37:00;98608.13;;;11.64;85.38
74268;BME280;62638;51.362;12.472;2023-04-01T13:42:49;98610.19;;;11.83;85.69
74268;BME280;62638;51.362;12.472;2023-04-01T13:45:18;98612.69;;;11.85;86.22
74268;BME280;62638;51.362;12.472;2023-04-01T14:01:42;98614.66;;;11.62;87.38
74268;BME280;62638;51.362;12.472;2023-04-01T14:07:37;98617.09;;;11.57;88.75
74268;BME280;62638;51.362;12.472;2023-04-01T14:10:19;98617.97;;;11.43;86.69
74268;BME280;62638;51.362;12.472;2023-04-01T14:23:28;98625.19;;;11.42;91.97
74268;BME280;62638;51.362;12.472;2023-04-01T14:26:21;98626.94;;;11.35;90.28
74268;BME280;62638;51.362;12.472;2023-04-01T14:34:36;98631.00;;;11.46;94.70
74268;BME280;62638;51.362;12.472;2023-04-01T14:37:15;98633.28;;;11.49;93.67
74268;BME280;62638;51.362;12.472;2023-04-01T14:42:57;98631.22;;;11.29;91.47
74268;BME280;62638;51.362;12.472;2023-04-01T14:47:58;98632.31;;;11.35;93.82
74268;BME280;62638;51.362;12.472;2023-04-01T14:50:27;98629.75;;;11.27;93.19
74268;BME280;62638;51.362;12.472;2023-04-01T14:53:16;98634.69;;;11.09;94.49
74268;BME280;62638;51.362;12.472;2023-04-01T14:55:51;98644.03;;;11.13;95.30
74268;BME280;62638;51.362;12.472;2023-04-01T14:58:19;98638.66;;;11.13;95.20
74268;BME280;62638;51.362;12.472;2023-04-01T15:06:14;98646.16;;;11.03;97.45
74268;BME280;62638;51.362;12.472;2023-04-01T15:17:28;98658.97;;;10.92;97.59
74268;BME280;62638;51.362;12.472;2023-04-01T15:23:13;98628.50;;;10.93;98.26
74268;BME280;62638;51.362;12.472;2023-04-01T15:33:45;98663.78;;;11.12;97.63
74268;BME280;62638;51.362;12.472;2023-04-01T15:36:24;98654.72;;;11.13;98.89
74268;BME280;62638;51.362;12.472;2023-04-01T15:44:57;98652.03;;;11.27;99.22
74268;BME280;62638;51.362;12.472;2023-04-01T15:55:57;98657.66;;;11.18;100.00
74268;BME280;62638;51.362;12.472;2023-04-01T16:03:59;98656.84;;;11.03;100.00
74268;BME280;62638;51.362;12.472;2023-04-01T16:06:41;98659.91;;;11.00;100.00
74268;BME280;62638;51.362;12.472;2023-04-01T16:15:08;98662.66;;;11.06;100.00
74268;BME280;62638;51.362;12.472;2023-04-01T16:17:48;98661.22;;;11.04;100.00
74268;BME280;62638;51.362;12.472;2023-04-01T16:20:22;98674.88;;;10.94;100.00
74268;BME280;62638;51.362;12.472;2023-04-01T16:22:56;98664.34;;;10.92;100.00
74268;BME280;62638;51.362;12.472;2023-04-01T16:25:33;98680.06;;;10.96;100.00
74268;BME280;62638;51.362;12.472;2023-04-01T16:31:31;98690.50;;;10.90;100.00
74268;BME280;62638;51.362;12.472;2023-04-01T16:34:27;98687.63;;;10.77;100.00
74268;BME280;62638;51.362;12.472;2023-04-01T16:37:11;98693.88;;;10.84;100.00
74268;BME280;62638;51.362;12.472;2023-04-01T16:39:47;98701.28;;;10.82;100.00
74268;BME280;62638;51.362;12.472;2023-04-01T16:42:38;98705.25;;;10.86;100.00
74268;BME280;62638;51.362;12.472;2023-04-01T16:48:05;98713.56;;;10.77;100.00
74268;BME280;62638;51.362;12.472;2023-04-01T16:50:44;98714.28;;;10.71;100.00
74268;BME280;62638;51.362;12.472;2023-04-01T16:55:50;98723.13;;;10.57;100.00
74268;BME280;62638;51.362;12.472;2023-04-01T16:58:27;98720.16;;;10.52;100.00
74268;BME280;62638;51.362;12.472;2023-04-01T17:01:16;98722.19;;;10.50;100.00
74268;BME280;62638;51.362;12.472;2023-04-01T17:03:52;98726.22;;;10.45;100.00
74268;BME280;62638;51.362;12.472;2023-04-01T17:06:27;98727.78;;;10.40;100.00
74268;BME280;62638;51.362;12.472;2023-04-01T17:09:21;98735.47;;;10.43;100.00
74268;BME280;62638;51.362;12.472;2023-04-01T17:11:56;98745.88;;;10.38;100.00
74268;BME280;62638;51.362;12.472;2023-04-01T17:17:45;98748.25;;;10.33;100.00
74268;BME280;62638;51.362;12.472;2023-04-01T17:20:38;98754.50;;;10.25;100.00
74268;BME280;62638;51.362;12.472;2023-04-01T17:23:13;98755.41;;;10.18;100.00
74268;BME280;62638;51.362;12.472;2023-04-01T17:25:58;98757.78;;;10.05;100.00
74268;BME280;62638;51.362;12.472;2023-04-01T17:28:35;98767.88;;;9.94;100.00
74268;BME280;62638;51.362;12.472;2023-04-01T17:31:14;98763.56;;;9.85;100.00
74268;BME280;62638;51.362;12.472;2023-04-01T17:36:27;98775.72;;;9.96;100.00
74268;BME280;62638;51.362;12.472;2023-04-01T17:39:37;98779.84;;;10.07;100.00
74268;BME280;62638;51.362;12.472;2023-04-01T17:45:11;98775.91;;;9.94;100.00
74268;BME280;62638;51.362;12.472;2023-04-01T17:47:49;98787.06;;;9.98;100.00
74268;BME280;62638;51.362;12.472;2023-04-01T17:50:35;98777.09;;;9.92;100.00
74268;BME280;62638;51.362;12.472;2023-04-01T17:53:22;98791.09;;;9.94;100.00
74268;BME280;62638;51.362;12.472;2023-04-01T17:55:55;98788.78;;;9.91;100.00
74268;BME280;62638;51.362;12.472;2023-04-01T17:58:56;98794.97;;;9.91;100.00
74268;BME280;62638;51.362;12.472;2023-04-01T18:04:25;98794.75;;;9.70;100.00
74268;BME280;62638;51.362;12.472;2023-04-01T18:07:14;98808.63;;;9.66;100.00
74268;BME280;62638;51.362;12.472;2023-04-01T18:10:01;98811.03;;;9.52;100.00
74268;BME280;62638;51.362;12.472;2023-04-01T18:20:53;98831.69;;;9.58;100.00
74268;BME280;62638;51.362;12.472;2023-04-01T18:23:27;98833.06;;;9.54;100.00
74268;BME280;62638;51.362;12.472;2023-04-01T18:26:03;98827.72;;;9.46;100.00
74268;BME280;62638;51.362;12.472;2023-04-01T18:28:43;98836.97;;;9.36;100.00
74268;BME280;62638;51.362;12.472;2023-04-01T18:31:18;98835.81;;;9.30;100.00
74268;BME280;62638;51.362;12.472;2023-04-01T18:33:55;98840.84;;;9.17;100.00
74268;BME280;62638;51.362;12.472;2023-04-01T18:36:51;98841.38;;;8.96;100.00
74268;BME280;62638;51.362;12.472;2023-04-01T18:39:35;98846.03;;;8.86;100.00
74268;BME280;62638;51.362;12.472;2023-04-01T18:44:57;98859.72;;;8.75;100.00
74268;BME280;62638;51.362;12.472;2023-04-01T18:50:38;98873.72;;;8.77;100.00
74268;BME280;62638;51.362;12.472;2023-04-01T18:53:25;98865.72;;;8.77;100.00
74268;BME280;62638;51.362;12.472;2023-04-01T18:55:59;98867.41;;;8.78;100.00
74268;BME280;62638;51.362;12.472;2023-04-01T18:58:30;98865.22;;;8.82;100.00
74268;BME280;62638;51.362;12.472;2023-04-01T19:06:44;98902.78;;;9.13;100.00
74268;BME280;62638;51.362;12.472;2023-04-01T19:11:54;98905.78;;;9.18;100.00
74268;BME280;62638;51.362;12.472;2023-04-01T19:17:16;98900.25;;;9.11;100.00
74268;BME280;62638;51.362;12.472;2023-04-01T19:25:20;98919.47;;;9.15;100.00
74268;BME280;62638;51.362;12.472;2023-04-01T19:27:50;98915.13;;;9.05;100.00